Airfield :
LOGIN :

Register | Disclaimer

   EN    FR    IT 

 










Legend :    VFR   Marginal VFR   IFR   Intensive IFR   Very Intensive IFR
Visi :
Ceiling :
>= 8 km
>= 3000ft
5 to 8 km
1000 to 3000 ft
1500m to 5 km
500 to 1000 ft
800 to 1500m
200 to 500 ft
< 800m
< 200 ft
Symbols :   Thunderstorms  Fog  Heavy snow  Heavy precipitations  Wind > 20 kt
SIGMETs :     Misc.  Thunderstorms  Icing  Turbulence  Mountain Waves  Volcanic Ashes







- Airport Elevation : 138 ft
- IATA code : BIO


LEBB - Bilbao

CURRENT METAR :
  • 100300Z AUTO VRB02KT 9999 FEW024/// SCT034/// BKN043/// 11/10 Q1034

EXPIRED METARs :
  • 100230Z AUTO 13003KT 9999 SCT022/// BKN045/// 11/10 Q1034
  • 100200Z AUTO 11004KT 9999 BKN044 11/10 Q1034
  • 100130Z AUTO 12004KT 9999 BKN048 11/10 Q1034
  • 100100Z AUTO 11003KT 080V140 9999 FEW039/// BKN048/// 11/10 Q1034
  • 100030Z AUTO 11003KT 9999 FEW040 BKN050 11/10 Q1035

TAF TAF LEBB
Valid from the 10 at 00:00 until the 11 at 00:00 UTC


092300Z 1000/1024 VRB03KT 7000 SCT025 BKN040 TX14/1014Z TN06/1100Z
PROB40
TEMPO 1000/1006 3000 BR
BECMG 1010/1014 03010KT
No reported NOTAMs for that airfield.



MET'MAP, your aeronautical weather chart ! - Copyright ORBIFLY December 2007 - Disclaimer

ORBIFLY MET'MAP TEAM :

Programming & Development : Alexandra Zaïnal
Concept & Development : Baudouin d'Aumeries
Co-Development & Prog : Marc-Olivier Méhu
Technical & hardware support : Manuel Goepfert

Contact : metmap@orbifly.com




SOURCES & CREDITS :

   NOAA